Time;durP1;ratioP1;P1;durP2;ratioP2;P2;SDS_P1;SDS_P2;PMS_P1;PMS_P2;Temp;Humidity;BMP_temperature;BMP_pressure;BME280_temperature;BME280_humidity;BME280_pressure;Samples;Min_cycle;Max_cycle;Signal;HPM_P1;HPM_P2
2022/02/20 00:01:26;;;;;;;;;;;;;;;22.63;22.70;97976.03;5074585;28;1883;-80
2022/02/20 00:03:51;;;;;;;;;;;;;;;22.30;23.04;97987.56;5084409;28;964;-80
2022/02/20 00:06:17;;;;;;;;;;;;;;;22.00;23.25;97979.50;5085779;28;1370;-78
2022/02/20 00:08:42;;;;;;;;;;;;;;;21.90;23.50;97986.25;5083772;28;955;-79
2022/02/20 00:11:08;;;;;;;;;;;;;;;22.03;23.46;97984.28;5085355;28;949;-79
2022/02/20 00:13:33;;;;;;;;;;;;;;;22.39;22.56;97988.94;5083609;28;1009;-80
2022/02/20 00:15:59;;;;;;;;;;;;;;;22.21;22.55;97950.56;5085232;28;965;-80
2022/02/20 00:18:24;;;;;;;;;;;;;;;22.04;23.10;97983.03;5082790;28;898;-80
2022/02/20 00:20:50;;;;;;;;;;;;;;;21.97;22.98;97981.22;5086171;28;1878;-79
2022/02/20 00:23:15;;;;;;;;;;;;;;;21.85;23.14;97974.22;5047506;28;1040;-78
2022/02/20 00:25:42;;;;;;;;;;;;;;;22.22;22.68;97974.81;5086056;28;903;-78
2022/02/20 00:28:07;;;;;;;;;;;;;;;22.38;22.57;97978.81;5081324;28;1024;-78
2022/02/20 00:30:33;;;;;;;;;;;;;;;22.22;22.83;97974.81;5086240;28;911;-80
2022/02/20 00:33:00;;;;;;;;;;;;;;;22.02;22.75;97977.81;5059498;28;1102;-78
2022/02/20 00:35:29;;;;;;;;;;;;;;;21.96;22.99;97973.94;5064410;28;968;-80
2022/02/20 00:37:55;;;;;;;;;;;;;;;22.27;22.80;97982.78;4980354;28;1140;-79
2022/02/20 00:40:20;;;;;;;;;;;;;;;22.34;22.33;97988.25;4984704;28;1883;-78
2022/02/20 00:42:46;;;;;;;;;;;;;;;22.38;22.51;97999.47;5000398;28;1100;-80
2022/02/20 00:45:11;;;;;;;;;;;;;;;21.98;22.98;97987.66;5003950;28;932;-79
2022/02/20 00:47:37;;;;;;;;;;;;;;;22.07;22.84;97980.09;5001503;28;1080;-80
2022/02/20 00:50:03;;;;;;;;;;;;;;;22.02;22.90;97983.50;4966539;28;1721;-79
2022/02/20 00:52:29;;;;;;;;;;;;;;;22.27;22.61;97994.09;4981350;28;1737;-80
2022/02/20 00:54:54;;;;;;;;;;;;;;;22.40;22.13;97984.84;4982602;28;1000;-80
2022/02/20 00:57:22;;;;;;;;;;;;;;;22.04;22.66;97983.03;4981557;28;1060;-79
2022/02/20 00:59:48;;;;;;;;;;;;;;;21.95;22.66;97985.72;4962123;29;1355;-79
2022/02/20 01:02:13;;;;;;;;;;;;;;;21.89;23.14;97984.69;4962670;29;1958;-79
2022/02/20 01:04:39;;;;;;;;;;;;;;;22.32;22.28;97985.06;4981207;28;1270;-80
2022/02/20 01:07:04;;;;;;;;;;;;;;;22.56;21.88;97979.88;4983555;28;947;-77
2022/02/20 01:09:30;;;;;;;;;;;;;;;22.19;22.32;97978.56;4979082;28;977;-79
2022/02/20 01:11:55;;;;;;;;;;;;;;;22.01;23.00;97972.59;4983143;28;1124;-78
2022/02/20 01:14:21;;;;;;;;;;;;;;;22.03;22.68;97962.41;4966795;28;936;-79
2022/02/20 01:16:47;;;;;;;;;;;;;;;22.25;22.29;97964.63;4963836;29;977;-79
2022/02/20 01:19:12;;;;;;;;;;;;;;;22.44;22.26;97965.72;4961420;29;1244;-80
2022/02/20 01:21:38;;;;;;;;;;;;;;;22.05;22.55;97962.75;4963479;29;1989;-80
2022/02/20 01:24:04;;;;;;;;;;;;;;;22.03;22.46;97968.06;4961831;29;960;-79
2022/02/20 01:26:29;;;;;;;;;;;;;;;21.91;22.91;97965.97;4963261;28;1060;-79
2022/02/20 01:28:54;;;;;;;;;;;;;;;21.97;22.94;97963.41;4994921;28;1135;-79
2022/02/20 01:31:20;;;;;;;;;;;;;;;22.42;22.03;97974.63;5016633;28;1091;-79
2022/02/20 01:33:45;;;;;;;;;;;;;;;22.58;21.92;97968.06;5019984;28;973;-79
2022/02/20 01:36:11;;;;;;;;;;;;;;;22.15;22.65;97969.38;5050336;28;989;-80
2022/02/20 01:38:36;;;;;;;;;;;;;;;22.07;22.74;97962.28;5058695;28;955;-79
2022/02/20 01:41:03;;;;;;;;;;;;;;;22.03;22.49;97961.63;5061077;28;2040;-80
2022/02/20 01:43:29;;;;;;;;;;;;;;;22.27;22.20;97960.09;5019351;28;1193;-80
2022/02/20 01:45:56;;;;;;;;;;;;;;;22.42;21.95;97954.78;5004908;28;1250;-79
2022/02/20 01:48:22;;;;;;;;;;;;;;;22.36;22.17;97956.59;4979468;28;1085;-79
2022/02/20 01:50:47;;;;;;;;;;;;;;;22.12;22.48;97953.25;4966341;28;1267;-79
2022/02/20 01:53:14;;;;;;;;;;;;;;;22.04;22.47;97940.53;4978714;28;1223;-80
2022/02/20 01:55:40;;;;;;;;;;;;;;;22.15;22.17;97938.22;4962691;28;1116;-80
2022/02/20 01:58:29;;;;;;;;;;;;;;;22.42;22.02;97937.00;4939825;29;995;-79
2022/02/20 02:01:13;;;;;;;;;;;;;;;22.29;22.26;97934.94;4927979;29;1907;-80
2022/02/20 02:03:51;;;;;;;;;;;;;;;21.98;22.44;97931.00;4941083;29;1022;-80
2022/02/20 02:06:44;;;;;;;;;;;;;;;22.28;22.38;97929.75;4889045;29;1150;-80
2022/02/20 02:09:12;;;;;;;;;;;;;;;22.42;21.83;97928.47;4883111;29;1136;-80
2022/02/20 02:12:04;;;;;;;;;;;;;;;22.25;22.01;97937.09;4848348;29;1047;-78
2022/02/20 02:15:06;;;;;;;;;;;;;;;21.97;22.67;97940.75;4848186;29;1045;-79
2022/02/20 02:17:44;;;;;;;;;;;;;;;22.02;22.53;97948.66;4809173;29;1014;-79
2022/02/20 02:20:33;;;;;;;;;;;;;;;22.31;22.32;97949.44;4817597;29;1968;-80
2022/02/20 02:23:08;;;;;;;;;;;;;;;22.54;21.73;97941.91;4826930;29;1036;-80
2022/02/20 02:25:51;;;;;;;;;;;;;;;22.04;22.39;97957.53;4865826;29;1318;-80
2022/02/20 02:28:42;;;;;;;;;;;;;;;21.93;22.69;97957.06;4828504;29;1081;-79
2022/02/20 02:31:13;;;;;;;;;;;;;;;21.93;22.62;97968.38;4812073;29;1127;-80
2022/02/20 02:33:40;;;;;;;;;;;;;;;22.32;22.33;97968.03;4796415;29;1225;-80
2022/02/20 02:36:06;;;;;;;;;;;;;;;22.32;21.82;97962.38;4773824;29;1234;-80
2022/02/20 02:38:32;;;;;;;;;;;;;;;22.09;22.51;97962.66;4757344;30;1393;-80
2022/02/20 02:40:59;;;;;;;;;;;;;;;21.97;22.36;97958.53;4759144;30;1908;-77
2022/02/20 02:43:26;;;;;;;;;;;;;;;21.80;22.80;97954.94;4740725;30;1139;-80
2022/02/20 02:45:53;;;;;;;;;;;;;;;22.38;22.17;97953.31;4779545;30;1198;-79
2022/02/20 02:48:18;;;;;;;;;;;;;;;22.67;21.95;97956.84;4759249;29;878;-80
2022/02/20 02:50:45;;;;;;;;;;;;;;;22.74;21.76;97959.50;4798437;29;1124;-79
2022/02/20 02:53:11;;;;;;;;;;;;;;;22.29;22.12;97965.34;4779958;30;1397;-80
2022/02/20 02:55:37;;;;;;;;;;;;;;;22.08;22.39;97958.22;4784214;30;1067;-79
2022/02/20 02:58:03;;;;;;;;;;;;;;;21.73;22.97;97954.38;4812162;29;1712;-78
2022/02/20 03:00:33;;;;;;;;;;;;;;;22.01;22.50;97947.88;4816726;29;1903;-80
2022/02/20 03:02:59;;;;;;;;;;;;;;;21.86;22.94;97943.88;4827457;29;1275;-80
2022/02/20 03:05:25;;;;;;;;;;;;;;;21.87;22.59;97953.19;4851033;29;1251;-79
2022/02/20 03:07:50;;;;;;;;;;;;;;;21.82;23.02;97958.16;4883080;29;1130;-78
2022/02/20 03:10:17;;;;;;;;;;;;;;;22.00;22.80;97968.16;4886738;29;1293;-79
2022/02/20 03:12:42;;;;;;;;;;;;;;;22.21;22.42;97984.56;4868500;29;1138;-80
2022/02/20 03:15:08;;;;;;;;;;;;;;;22.53;21.96;97974.31;4892428;29;1090;-79
2022/02/20 03:17:34;;;;;;;;;;;;;;;22.35;22.28;97984.16;4927251;29;1697;-80
2022/02/20 03:20:00;;;;;;;;;;;;;;;21.98;22.90;97970.66;4945525;29;1145;-80
2022/02/20 03:22:25;;;;;;;;;;;;;;;21.97;22.91;97980.41;4949121;28;1990;-80
2022/02/20 03:24:51;;;;;;;;;;;;;;;21.91;22.74;98004.84;4983791;28;1475;-80
2022/02/20 03:27:17;;;;;;;;;;;;;;;22.25;22.62;97999.44;4956463;28;1155;-80
2022/02/20 03:29:44;;;;;;;;;;;;;;;22.44;22.28;97992.00;4985930;28;1350;-80
2022/02/20 03:32:10;;;;;;;;;;;;;;;22.35;22.50;97995.50;5002527;28;988;-79
2022/02/20 03:34:37;;;;;;;;;;;;;;;22.22;22.42;97991.84;4985714;28;1240;-80
2022/02/20 03:37:04;;;;;;;;;;;;;;;22.00;22.68;97973.84;4980337;28;1294;-79
2022/02/20 03:39:34;;;;;;;;;;;;;;;21.79;23.23;97959.03;4963176;29;1317;-80
2022/02/20 03:42:05;;;;;;;;;;;;;;;22.46;22.33;97969.66;4963339;28;1891;-80
2022/02/20 03:44:59;;;;;;;;;;;;;;;22.54;22.05;97978.75;4906961;29;1023;-79
2022/02/20 03:47:25;;;;;;;;;;;;;;;22.15;22.82;97986.38;4904392;29;1322;-80
2022/02/20 03:49:55;;;;;;;;;;;;;;;21.94;22.90;97986.97;4869241;29;1285;-80
2022/02/20 03:52:26;;;;;;;;;;;;;;;21.87;22.85;97992.84;4882703;29;1311;-79
2022/02/20 03:54:53;;;;;;;;;;;;;;;22.24;22.82;97989.34;4869622;29;1354;-80
2022/02/20 03:57:19;;;;;;;;;;;;;;;22.57;22.38;97983.50;4886860;29;915;-79
2022/02/20 04:00:11;;;;;;;;;;;;;;;21.93;22.85;97996.72;4888369;29;996;-80
2022/02/20 04:02:48;;;;;;;;;;;;;;;22.00;23.02;97982.34;4885696;29;1380;-80
2022/02/20 04:05:16;;;;;;;;;;;;;;;22.00;23.13;97985.16;4880039;29;1231;-80
2022/02/20 04:07:42;;;;;;;;;;;;;;;22.20;23.01;97983.00;4885242;29;942;-80
2022/02/20 04:10:09;;;;;;;;;;;;;;;22.41;22.72;97980.78;4912851;29;1313;-80
2022/02/20 04:12:34;;;;;;;;;;;;;;;22.10;22.74;97979.22;4975002;28;1360;-80
2022/02/20 04:15:01;;;;;;;;;;;;;;;22.00;23.04;97990.84;4975040;28;1100;-80
2022/02/20 04:17:26;;;;;;;;;;;;;;;21.93;23.27;98000.34;5000876;28;1055;-80
2022/02/20 04:19:52;;;;;;;;;;;;;;;21.90;23.23;97998.38;5001113;28;1195;-80
2022/02/20 04:22:18;;;;;;;;;;;;;;;22.20;23.02;98005.66;4966720;28;1918;-80
2022/02/20 04:24:43;;;;;;;;;;;;;;;22.49;22.28;97999.97;4946561;29;1343;-80
2022/02/20 04:27:12;;;;;;;;;;;;;;;22.33;22.79;97991.53;4963086;29;1184;-80
2022/02/20 04:29:42;;;;;;;;;;;;;;;21.94;23.10;97993.41;4946835;29;1393;-80
2022/02/20 04:32:09;;;;;;;;;;;;;;;21.89;23.44;98001.69;4962666;29;1089;-80
2022/02/20 04:34:34;;;;;;;;;;;;;;;21.89;23.25;97990.34;4961966;29;1065;-78
2022/02/20 04:37:00;;;;;;;;;;;;;;;22.15;22.80;97986.38;4947800;29;1324;-80
2022/02/20 04:39:26;;;;;;;;;;;;;;;22.38;22.49;97993.00;4957291;29;1144;-79
2022/02/20 04:41:52;;;;;;;;;;;;;;;22.05;22.52;97976.13;4943821;29;1966;-80
2022/02/20 04:44:28;;;;;;;;;;;;;;;22.09;22.80;97990.97;4933303;29;954;-80
2022/02/20 04:46:54;;;;;;;;;;;;;;;21.97;23.32;97988.91;4981916;28;1101;-80
2022/02/20 04:49:19;;;;;;;;;;;;;;;22.03;23.17;97978.63;4964217;28;1538;-80
2022/02/20 04:52:04;;;;;;;;;;;;;;;22.32;22.74;97985.06;4975563;28;983;-79
2022/02/20 04:54:49;;;;;;;;;;;;;;;22.17;22.77;97983.88;5020341;28;1146;-78
2022/02/20 04:57:19;;;;;;;;;;;;;;;21.98;23.27;97987.66;4993678;28;1611;-79
2022/02/20 04:59:45;;;;;;;;;;;;;;;22.04;23.33;97992.31;4997261;28;1341;-80
2022/02/20 05:02:10;;;;;;;;;;;;;;;22.08;23.08;97998.69;4964966;28;1911;-80
2022/02/20 05:04:44;;;;;;;;;;;;;;;22.57;22.50;98017.53;4964497;28;1128;-80
2022/02/20 05:07:11;;;;;;;;;;;;;;;22.49;22.33;98008.47;4981210;28;1057;-79
2022/02/20 05:09:39;;;;;;;;;;;;;;;22.06;23.02;97989.03;4977399;28;1323;-80
2022/02/20 05:12:05;;;;;;;;;;;;;;;22.07;22.93;98007.63;4955288;29;1689;-80
2022/02/20 05:14:31;;;;;;;;;;;;;;;21.95;23.22;97999.88;4922168;29;1171;-80
2022/02/20 05:17:05;;;;;;;;;;;;;;;22.46;22.68;98003.69;4921069;29;1304;-80
2022/02/20 05:19:57;;;;;;;;;;;;;;;22.51;22.21;97997.44;4904431;29;986;-80
2022/02/20 05:22:24;;;;;;;;;;;;;;;22.19;23.02;97995.59;4896675;29;1895;-79
2022/02/20 05:24:56;;;;;;;;;;;;;;;21.98;23.25;97984.84;4882468;29;1210;-80
2022/02/20 05:27:22;;;;;;;;;;;;;;;21.93;23.09;97985.38;4882001;29;1410;-79
2022/02/20 05:29:50;;;;;;;;;;;;;;;22.34;22.91;97990.28;4882714;29;1083;-80
2022/02/20 05:32:23;;;;;;;;;;;;;;;22.31;22.49;97997.63;4858074;29;1556;-79
2022/02/20 05:34:57;;;;;;;;;;;;;;;22.12;23.00;98004.28;4779860;30;1287;-80
2022/02/20 05:37:26;;;;;;;;;;;;;;;22.04;23.16;98014.19;4761323;30;1266;-80
2022/02/20 05:39:51;;;;;;;;;;;;;;;21.94;23.32;98003.97;4772364;30;2503;-80
2022/02/20 05:42:17;;;;;;;;;;;;;;;21.75;23.29;98011.34;4769217;30;1908;-77
2022/02/20 05:44:52;;;;;;;;;;;;;;;22.40;22.49;98021.72;4789345;29;1889;-79
2022/02/20 05:47:17;;;;;;;;;;;;;;;22.49;22.17;98021.84;4790816;29;1751;-80
2022/02/20 05:49:47;;;;;;;;;;;;;;;22.09;22.89;98022.16;4776085;30;1479;-78
2022/02/20 05:52:12;;;;;;;;;;;;;;;21.97;23.14;98020.88;4772358;30;1141;-80
2022/02/20 05:54:42;;;;;;;;;;;;;;;21.45;23.21;97933.28;4793814;29;1110;-80
2022/02/20 05:57:08;;;;;;;;;;;;;;;22.27;22.53;98028.13;4823578;29;1240;-81
2022/02/20 05:59:39;;;;;;;;;;;;;;;22.48;22.21;98031.56;4833905;29;1357;-81
2022/02/20 06:02:04;;;;;;;;;;;;;;;21.97;22.90;98032.19;4902109;29;1966;-80
2022/02/20 06:04:30;;;;;;;;;;;;;;;21.77;23.41;98034.38;4866593;29;1080;-80
2022/02/20 06:07:15;;;;;;;;;;;;;;;21.88;23.25;98023.53;4867836;29;1233;-81
2022/02/20 06:10:16;;;;;;;;;;;;;;;22.32;22.62;98023.94;4920928;29;1021;-80
2022/02/20 06:13:02;;;;;;;;;;;;;;;22.41;22.37;98026.13;4920997;29;1462;-80
2022/02/20 06:15:41;;;;;;;;;;;;;;;22.06;23.05;98040.84;4906809;29;1118;-80
2022/02/20 06:18:42;;;;;;;;;;;;;;;21.87;23.44;98038.16;4898463;29;1048;-80
2022/02/20 06:21:31;;;;;;;;;;;;;;;22.26;22.52;98035.03;4908620;29;1888;-80
2022/02/20 06:24:20;;;;;;;;;;;;;;;22.39;22.69;98034.31;4861191;29;1033;-80
2022/02/20 06:26:59;;;;;;;;;;;;;;;22.15;22.82;98057.22;4889944;29;1094;-80
2022/02/20 06:29:25;;;;;;;;;;;;;;;21.94;23.26;98032.28;4888884;29;1333;-80
2022/02/20 06:31:51;;;;;;;;;;;;;;;21.79;23.12;98038.34;4871589;29;1482;-80
2022/02/20 06:34:17;;;;;;;;;;;;;;;22.26;22.86;98032.22;4869586;29;1193;-80
2022/02/20 06:36:42;;;;;;;;;;;;;;;22.49;22.26;98030.34;4853342;29;1087;-78
2022/02/20 06:39:10;;;;;;;;;;;;;;;22.22;22.48;98025.84;4869425;29;1159;-81
2022/02/20 06:41:36;;;;;;;;;;;;;;;22.11;22.84;98022.53;4871400;29;1985;-81
2022/02/20 06:44:02;;;;;;;;;;;;;;;21.85;23.22;98025.22;4855097;29;1150;-81
2022/02/20 06:46:46;;;;;;;;;;;;;;;22.15;22.97;98031.72;4871088;29;976;-81
2022/02/20 06:49:34;;;;;;;;;;;;;;;22.47;22.40;98035.66;4855083;29;1078;-80
2022/02/20 06:52:07;;;;;;;;;;;;;;;22.06;22.60;98042.88;4866340;29;1072;-79
2022/02/20 06:55:02;;;;;;;;;;;;;;;22.06;22.99;98045.72;4833386;29;1061;-81
2022/02/20 06:57:46;;;;;;;;;;;;;;;21.96;23.05;98046.78;4852978;29;1591;-81
2022/02/20 07:00:12;;;;;;;;;;;;;;;22.41;22.53;98060.16;4834021;29;1805;-80
2022/02/20 07:02:38;;;;;;;;;;;;;;;22.56;22.37;98061.31;4875817;29;1907;-81
2022/02/20 07:05:04;;;;;;;;;;;;;;;22.17;22.51;98057.56;4850830;29;1813;-78
2022/02/20 07:07:30;;;;;;;;;;;;;;;22.02;23.02;98059.16;4876340;29;994;-81
2022/02/20 07:09:55;;;;;;;;;;;;;;;21.87;23.19;98055.16;4867058;29;1021;-80
2022/02/20 07:12:21;;;;;;;;;;;;;;;22.30;22.32;98055.59;4840849;29;958;-81
2022/02/20 07:14:46;;;;;;;;;;;;;;;22.53;22.35;98063.00;4876841;29;1114;-79
2022/02/20 07:17:12;;;;;;;;;;;;;;;22.12;22.63;98055.28;4907685;29;955;-80
2022/02/20 07:19:37;;;;;;;;;;;;;;;21.93;22.96;98042.84;4910704;29;1621;-80
2022/02/20 07:22:03;;;;;;;;;;;;;;;21.77;23.08;98052.16;4925749;29;1923;-78
2022/02/20 07:24:28;;;;;;;;;;;;;;;22.12;22.72;98045.97;4891660;29;1018;-78
2022/02/20 07:26:54;;;;;;;;;;;;;;;22.30;22.55;98060.47;4900856;29;955;-79
2022/02/20 07:29:19;;;;;;;;;;;;;;;22.21;22.54;98057.47;4892550;29;917;-78
2022/02/20 07:31:45;;;;;;;;;;;;;;;22.12;22.83;98072.28;4881967;29;1057;-79
2022/02/20 07:34:10;;;;;;;;;;;;;;;22.05;22.85;98070.41;4887616;29;1023;-79
2022/02/20 07:36:41;;;;;;;;;;;;;;;21.76;23.23;98064.75;4889100;29;928;-78
2022/02/20 07:39:07;;;;;;;;;;;;;;;22.50;22.19;98091.50;4903936;29;1072;-77
2022/02/20 07:41:32;;;;;;;;;;;;;;;22.53;22.23;98084.91;4888801;29;1911;-80
2022/02/20 07:43:58;;;;;;;;;;;;;;;22.07;22.66;98086.97;4887459;29;972;-79
2022/02/20 07:46:23;;;;;;;;;;;;;;;22.11;22.44;98096.19;4888735;29;1145;-79
2022/02/20 07:48:49;;;;;;;;;;;;;;;22.03;22.82;98083.44;4923898;29;1696;-79
2022/02/20 07:51:14;;;;;;;;;;;;;;;22.40;22.22;98081.25;4961462;28;1283;-79
2022/02/20 07:53:41;;;;;;;;;;;;;;;22.56;22.11;98067.00;4943916;29;1127;-79
2022/02/20 07:56:08;;;;;;;;;;;;;;;22.05;22.73;98061.13;4964961;28;1022;-79
2022/02/20 07:58:35;;;;;;;;;;;;;;;22.00;22.95;98064.50;4947667;28;1144;-79
2022/02/20 08:01:00;;;;;;;;;;;;;;;22.01;22.99;98061.22;4944628;29;1910;-79
2022/02/20 08:03:25;;;;;;;;;;;;;;;22.38;22.25;98067.50;4940294;29;1796;-79
2022/02/20 08:05:51;;;;;;;;;;;;;;;22.43;22.18;98051.97;4941201;28;921;-80
2022/02/20 08:08:16;;;;;;;;;;;;;;;22.03;22.90;98052.28;4987261;28;1040;-78
2022/02/20 08:10:42;;;;;;;;;;;;;;;22.02;22.56;98062.00;5021711;28;929;-78
2022/02/20 08:13:07;;;;;;;;;;;;;;;21.84;23.38;98063.28;5007371;28;1999;-78
2022/02/20 08:15:33;;;;;;;;;;;;;;;22.34;22.45;98061.16;5032848;28;1087;-78
2022/02/20 08:17:58;;;;;;;;;;;;;;;22.49;22.46;98061.53;5027970;28;2020;-78
2022/02/20 08:20:24;;;;;;;;;;;;;;;22.14;22.76;98055.66;5038486;28;1009;-79
2022/02/20 08:22:50;;;;;;;;;;;;;;;22.06;22.73;98051.38;5038134;28;1981;-78
2022/02/20 08:25:15;;;;;;;;;;;;;;;22.02;23.20;98039.34;5041288;28;1219;-78
2022/02/20 08:27:41;;;;;;;;;;;;;;;22.31;22.60;98037.31;5038501;28;1031;-78
2022/02/20 08:30:08;;;;;;;;;;;;;;;22.39;22.33;98029.44;5024062;28;1134;-79
2022/02/20 08:32:34;;;;;;;;;;;;;;;22.03;22.80;98035.28;5039586;28;972;-78
2022/02/20 08:34:59;;;;;;;;;;;;;;;22.02;23.06;98033.66;5052671;28;1850;-79
2022/02/20 08:37:25;;;;;;;;;;;;;;;21.80;23.36;98028.59;5042059;28;1888;-78
2022/02/20 08:39:50;;;;;;;;;;;;;;;22.00;23.22;98030.50;5060053;28;1028;-79
2022/02/20 08:42:16;;;;;;;;;;;;;;;22.07;22.86;98025.44;5043561;28;1882;-79
2022/02/20 08:44:41;;;;;;;;;;;;;;;22.45;22.47;98038.16;5079190;28;999;-76
2022/02/20 08:47:07;;;;;;;;;;;;;;;22.39;22.36;98034.31;5071984;28;1670;-79
2022/02/20 08:49:32;;;;;;;;;;;;;;;22.04;22.92;98034.03;5066365;28;1016;-77
2022/02/20 08:51:59;;;;;;;;;;;;;;;21.97;23.09;98031.41;5102861;28;1039;-79
2022/02/20 08:54:24;;;;;;;;;;;;;;;22.16;22.83;98038.97;5101396;28;900;-78
2022/02/20 08:56:50;;;;;;;;;;;;;;;22.39;22.63;98034.31;5100707;28;1673;-78
2022/02/20 08:59:15;;;;;;;;;;;;;;;22.27;22.56;98027.34;5095428;28;1454;-77
2022/02/20 09:01:40;;;;;;;;;;;;;;;22.09;23.07;98042.00;5091493;28;1961;-79
2022/02/20 09:04:06;;;;;;;;;;;;;;;22.10;22.67;98041.56;5088786;28;1449;-79
2022/02/20 09:06:32;;;;;;;;;;;;;;;22.08;23.00;98043.25;5090774;28;859;-79
2022/02/20 09:08:57;;;;;;;;;;;;;;;22.52;22.26;98035.91;5080304;28;870;-78
2022/02/20 09:11:23;;;;;;;;;;;;;;;22.45;22.51;98032.50;5084768;28;1754;-78
2022/02/20 09:13:49;;;;;;;;;;;;;;;22.03;22.96;98030.41;5089696;28;945;-79
2022/02/20 09:16:14;;;;;;;;;;;;;;;22.03;22.77;98024.75;5082214;28;1058;-79
2022/02/20 09:18:40;;;;;;;;;;;;;;;22.15;23.08;98026.06;5080226;28;1018;-79
2022/02/20 09:21:06;;;;;;;;;;;;;;;22.49;22.49;98022.66;5020035;28;1952;-78
2022/02/20 09:23:31;;;;;;;;;;;;;;;22.56;22.14;98004.59;5018412;28;1006;-78
2022/02/20 09:25:56;;;;;;;;;;;;;;;22.66;22.15;97997.03;4982228;28;982;-78
2022/02/20 09:28:22;;;;;;;;;;;;;;;22.16;22.89;97996.47;4979552;28;967;-78
2022/02/20 09:30:48;;;;;;;;;;;;;;;21.94;22.83;97998.28;4980933;28;1148;-78
2022/02/20 09:33:14;;;;;;;;;;;;;;;21.95;22.90;97994.22;4979268;28;924;-77
2022/02/20 09:35:39;;;;;;;;;;;;;;;22.13;22.80;97994.53;4982215;28;1371;-78
2022/02/20 09:38:04;;;;;;;;;;;;;;;22.01;22.74;97987.53;4939972;29;983;-78
2022/02/20 09:40:30;;;;;;;;;;;;;;;21.72;23.23;97987.56;4944772;29;1994;-79
2022/02/20 09:42:56;;;;;;;;;;;;;;;21.97;23.09;97986.88;4940890;29;955;-79
2022/02/20 09:45:21;;;;;;;;;;;;;;;22.02;23.10;97985.50;4944804;29;1020;-79
2022/02/20 09:47:47;;;;;;;;;;;;;;;22.19;22.91;97992.75;4941453;29;1061;-78
2022/02/20 09:50:12;;;;;;;;;;;;;;;22.42;22.41;97996.53;4963107;29;987;-78
2022/02/20 09:52:38;;;;;;;;;;;;;;;22.17;23.02;97986.72;4987246;28;1056;-78
2022/02/20 09:55:04;;;;;;;;;;;;;;;22.04;23.00;97981.00;4980951;28;1849;-78
2022/02/20 09:57:29;;;;;;;;;;;;;;;21.92;23.13;97989.47;4995127;28;1022;-78
2022/02/20 09:59:55;;;;;;;;;;;;;;;22.08;23.18;97980.91;4998916;28;1689;-78
2022/02/20 10:02:21;;;;;;;;;;;;;;;22.51;22.48;97979.66;5000107;28;1899;-78
2022/02/20 10:04:47;;;;;;;;;;;;;;;22.31;22.42;97977.78;5031448;28;1359;-78
2022/02/20 10:07:33;;;;;;;;;;;;;;;22.08;23.00;97978.84;5040570;28;1046;-78
2022/02/20 10:10:00;;;;;;;;;;;;;;;21.81;23.27;97984.88;5095023;28;1010;-78
2022/02/20 10:12:26;;;;;;;;;;;;;;;22.23;23.11;97986.97;5083306;28;1436;-79
2022/02/20 10:14:51;;;;;;;;;;;;;;;22.47;22.69;97984.63;5102037;28;1926;-77
2022/02/20 10:17:18;;;;;;;;;;;;;;;22.14;22.54;97967.78;5059216;28;985;-79
2022/02/20 10:20:04;;;;;;;;;;;;;;;22.01;23.14;97969.75;5001001;28;998;-79
2022/02/20 10:22:49;;;;;;;;;;;;;;;22.05;23.09;97961.94;4998115;28;1980;-77
2022/02/20 10:25:33;;;;;;;;;;;;;;;22.22;22.88;97954.97;5002621;28;997;-79
2022/02/20 10:28:18;;;;;;;;;;;;;;;22.46;22.44;97955.47;4997705;28;1807;-78
2022/02/20 10:30:51;;;;;;;;;;;;;;;22.02;23.23;97954.34;4984737;28;1738;-78
2022/02/20 10:33:20;;;;;;;;;;;;;;;21.97;23.24;97947.22;4998034;28;967;-79
2022/02/20 10:35:46;;;;;;;;;;;;;;;21.90;23.37;97930.41;4980718;28;1789;-78
2022/02/20 10:38:15;;;;;;;;;;;;;;;22.08;23.00;97929.91;4942944;29;944;-79
2022/02/20 10:40:43;;;;;;;;;;;;;;;22.54;22.31;97927.72;4943556;29;1900;-79
2022/02/20 10:43:08;;;;;;;;;;;;;;;22.51;22.40;97914.44;4939161;29;944;-77
2022/02/20 10:45:35;;;;;;;;;;;;;;;22.12;22.73;97905.09;4925270;29;981;-79
2022/02/20 10:48:01;;;;;;;;;;;;;;;21.94;23.26;97884.97;4864098;29;986;-79
2022/02/20 10:50:27;;;;;;;;;;;;;;;22.14;23.16;97893.31;4901941;29;967;-79
2022/02/20 10:53:05;;;;;;;;;;;;;;;22.36;22.51;97895.03;4918719;29;1068;-79
2022/02/20 10:55:49;;;;;;;;;;;;;;;22.44;22.45;97877.81;4887187;29;1083;-79
2022/02/20 10:58:18;;;;;;;;;;;;;;;22.07;23.26;97872.44;4914256;29;1650;-79
2022/02/20 11:00:50;;;;;;;;;;;;;;;21.93;23.30;97872.06;4923702;29;1978;-79
2022/02/20 11:03:15;;;;;;;;;;;;;;;21.91;23.25;97877.38;4921835;29;955;-78
2022/02/20 11:05:41;;;;;;;;;;;;;;;22.23;22.94;97877.25;4946451;29;1340;-78
2022/02/20 11:08:07;;;;;;;;;;;;;;;22.40;22.90;97865.78;4943125;29;987;-79
2022/02/20 11:10:32;;;;;;;;;;;;;;;22.12;23.04;97856.91;4947190;29;1048;-79
2022/02/20 11:12:58;;;;;;;;;;;;;;;21.95;23.15;97863.91;4962917;29;900;-79
2022/02/20 11:15:23;;;;;;;;;;;;;;;21.98;23.14;97863.00;4925947;29;2102;-78
2022/02/20 11:17:50;;;;;;;;;;;;;;;21.99;23.15;97861.75;4924411;29;1539;-78
2022/02/20 11:20:16;;;;;;;;;;;;;;;22.15;23.23;97847.53;4963287;29;965;-78
2022/02/20 11:22:41;;;;;;;;;;;;;;;22.52;22.67;97847.97;4955869;28;1907;-78
2022/02/20 11:25:07;;;;;;;;;;;;;;;22.34;22.83;97846.50;4982406;28;1336;-79
2022/02/20 11:27:34;;;;;;;;;;;;;;;22.04;23.25;97841.38;4980374;28;2135;-78
2022/02/20 11:29:59;;;;;;;;;;;;;;;21.99;23.27;97848.38;4981906;28;1562;-78
2022/02/20 11:32:24;;;;;;;;;;;;;;;22.01;22.95;97845.09;4982260;28;980;-79
2022/02/20 11:34:50;;;;;;;;;;;;;;;22.26;22.81;97856.47;5000268;28;1112;-78
2022/02/20 11:37:16;;;;;;;;;;;;;;;22.63;22.56;97851.25;4981348;28;1834;-79
2022/02/20 11:39:59;;;;;;;;;;;;;;;22.22;22.98;97850.13;4985522;28;1656;-80
2022/02/20 11:42:25;;;;;;;;;;;;;;;21.99;23.21;97850.44;4992572;28;1985;-80
2022/02/20 11:44:54;;;;;;;;;;;;;;;21.83;23.25;97857.75;4966079;29;1386;-78
2022/02/20 11:47:35;;;;;;;;;;;;;;;21.92;23.38;97859.16;4980388;28;972;-80
2022/02/20 11:50:16;;;;;;;;;;;;;;;21.99;23.37;97859.72;4986109;28;1426;-79
2022/02/20 11:52:48;;;;;;;;;;;;;;;22.28;22.95;97858.88;5003122;28;1815;-79
2022/02/20 11:55:14;;;;;;;;;;;;;;;22.36;22.82;97855.34;4968144;28;1037;-79
2022/02/20 11:57:40;;;;;;;;;;;;;;;22.12;23.08;97845.59;4964778;28;1113;-80
2022/02/20 12:00:06;;;;;;;;;;;;;;;22.01;23.16;97834.56;4967877;28;975;-78
2022/02/20 12:02:58;;;;;;;;;;;;;;;21.94;23.66;97834.00;4964973;28;1883;-80
2022/02/20 12:05:23;;;;;;;;;;;;;;;22.33;23.19;97847.75;4948352;29;1186;-78
2022/02/20 12:07:49;;;;;;;;;;;;;;;22.67;22.78;97834.91;4944538;29;1082;-79
2022/02/20 12:10:20;;;;;;;;;;;;;;;22.21;23.20;97845.69;4948689;29;973;-76
2022/02/20 12:12:49;;;;;;;;;;;;;;;22.00;23.29;97849.19;4943961;29;1554;-79
2022/02/20 12:15:33;;;;;;;;;;;;;;;22.02;23.40;97858.00;4947037;29;1754;-79
2022/02/20 12:18:11;;;;;;;;;;;;;;;21.96;23.32;97848.50;4940574;29;1778;-80
2022/02/20 12:20:51;;;;;;;;;;;;;;;22.36;22.83;97846.06;4936021;29;1963;-80
2022/02/20 12:23:35;;;;;;;;;;;;;;;22.24;22.99;97847.66;4961218;29;958;-79
2022/02/20 12:26:03;;;;;;;;;;;;;;;21.95;23.62;97830.69;4996191;28;1740;-79
2022/02/20 12:28:37;;;;;;;;;;;;;;;21.96;23.41;97837.16;5027486;28;1025;-80
2022/02/20 12:31:12;;;;;;;;;;;;;;;21.83;23.65;97829.44;5032264;28;1110;-80
2022/02/20 12:33:40;;;;;;;;;;;;;;;22.23;23.15;97834.72;5022634;28;1021;-80
2022/02/20 12:36:06;;;;;;;;;;;;;;;22.30;23.24;97828.81;4986988;28;1412;-80
2022/02/20 12:38:32;;;;;;;;;;;;;;;22.12;23.50;97828.56;4983741;28;1792;-79
2022/02/20 12:40:57;;;;;;;;;;;;;;;21.96;23.59;97825.81;4986853;28;1887;-78
2022/02/20 12:43:23;;;;;;;;;;;;;;;21.93;23.80;97826.75;4984569;28;968;-81
2022/02/20 12:45:48;;;;;;;;;;;;;;;22.07;23.26;97826.28;4993693;28;1011;-79
2022/02/20 12:48:17;;;;;;;;;;;;;;;22.27;23.41;97828.94;5002829;28;1044;-80
2022/02/20 12:50:47;;;;;;;;;;;;;;;22.58;22.93;97820.63;4986978;28;985;-80
2022/02/20 12:53:13;;;;;;;;;;;;;;;22.23;23.11;97833.94;4982989;28;955;-80
2022/02/20 12:55:40;;;;;;;;;;;;;;;22.02;23.73;97824.81;4947980;29;1504;-80
2022/02/20 12:58:10;;;;;;;;;;;;;;;22.08;23.44;97830.72;4944092;29;1428;-80
2022/02/20 13:00:39;;;;;;;;;;;;;;;22.25;23.44;97826.56;4948153;29;1705;-76
2022/02/20 13:03:14;;;;;;;;;;;;;;;22.44;22.91;97821.13;4944105;29;1025;-78
2022/02/20 13:05:40;;;;;;;;;;;;;;;22.18;23.36;97828.84;4948945;29;1211;-80
2022/02/20 13:08:09;;;;;;;;;;;;;;;22.14;23.53;97822.47;4906662;29;983;-80
2022/02/20 13:10:35;;;;;;;;;;;;;;;21.99;23.60;97814.38;4891534;29;958;-80